Time;durP1;ratioP1;P1;durP2;ratioP2;P2;SDS_P1;SDS_P2;PMS_P1;PMS_P2;Temp;Humidity;BMP_temperature;BMP_pressure;BME280_temperature;BME280_humidity;BME280_pressure;Samples;Min_cycle;Max_cycle;Signal;HPM_P1;HPM_P2
2023/08/15 00:01:50;;;;;;;10.25;4.20;;;;;;;20.46;100.00;100861.59;5010342;28;20076;-67
2023/08/15 00:04:17;;;;;;;7.90;3.45;;;;;;;20.42;100.00;100864.72;5016755;28;20080;-66
2023/08/15 00:06:45;;;;;;;5.35;3.88;;;;;;;20.42;100.00;100841.50;5031466;28;20045;-68
2023/08/15 00:09:12;;;;;;;13.30;4.53;;;;;;;20.46;100.00;100807.28;5027308;28;20053;-65
2023/08/15 00:11:40;;;;;;;6.95;4.25;;;;;;;20.52;100.00;100821.91;5030264;28;20072;-66
2023/08/15 00:14:07;;;;;;;6.68;3.95;;;;;;;20.55;100.00;100821.63;5012776;28;20049;-66
2023/08/15 00:16:35;;;;;;;6.28;3.40;;;;;;;20.58;100.00;100805.25;4992406;28;20053;-66
2023/08/15 00:19:03;;;;;;;4.53;3.00;;;;;;;20.60;100.00;100812.16;5010217;28;20053;-67
2023/08/15 00:21:30;;;;;;;4.93;3.83;;;;;;;20.63;100.00;100809.19;5011520;28;20076;-65
2023/08/15 00:23:58;;;;;;;7.13;3.90;;;;;;;20.66;100.00;100805.34;5026287;28;20159;-66
2023/08/15 00:26:25;;;;;;;4.90;3.45;;;;;;;20.68;100.00;100781.97;4996559;28;20120;-66
2023/08/15 00:28:52;;;;;;;6.55;3.85;;;;;;;20.69;100.00;100764.94;5017683;28;20059;-67
2023/08/15 00:31:20;;;;;;;7.75;4.25;;;;;;;20.68;100.00;100764.09;5026881;28;20526;-66
2023/08/15 00:33:47;;;;;;;9.95;4.72;;;;;;;20.70;100.00;100778.13;5032914;28;20052;-66
2023/08/15 00:36:15;;;;;;;6.03;3.45;;;;;;;20.71;100.00;100803.06;5012655;28;20041;-67
2023/08/15 00:38:43;;;;;;;7.00;3.60;;;;;;;20.70;100.00;100845.03;5023932;28;20058;-66
2023/08/15 00:41:10;;;;;;;5.88;3.85;;;;;;;20.68;100.00;100910.38;4996973;28;20115;-66
2023/08/15 00:43:38;;;;;;;4.03;2.95;;;;;;;20.58;100.00;100923.81;5030848;28;20046;-66
2023/08/15 00:46:06;;;;;;;5.53;3.10;;;;;;;20.49;100.00;100903.31;5011968;28;20476;-66
2023/08/15 00:48:34;;;;;;;8.55;2.50;;;;;;;20.41;100.00;100844.34;5011923;28;20152;-67
2023/08/15 00:51:02;;;;;;;5.60;2.38;;;;;;;20.41;100.00;100825.63;5016514;28;20087;-67
2023/08/15 00:53:30;;;;;;;5.63;2.25;;;;;;;20.42;100.00;100808.56;5012595;28;20045;-67
2023/08/15 00:55:57;;;;;;;3.33;1.85;;;;;;;20.45;100.00;100806.44;5010765;28;20080;-66
2023/08/15 00:58:25;;;;;;;4.60;2.45;;;;;;;20.46;100.00;100809.97;5016250;28;20057;-68
2023/08/15 01:00:53;;;;;;;4.35;2.58;;;;;;;20.47;100.00;100811.63;4995385;28;20427;-67
2023/08/15 01:03:21;;;;;;;4.30;2.45;;;;;;;20.45;100.00;100849.22;5031269;28;20057;-68
2023/08/15 01:05:49;;;;;;;4.35;2.05;;;;;;;20.47;100.00;100854.41;5031383;28;20053;-68
2023/08/15 01:08:16;;;;;;;4.50;2.28;;;;;;;20.48;100.00;100859.66;5011079;28;20042;-69
2023/08/15 01:10:45;;;;;;;5.22;2.72;;;;;;;20.50;100.00;100866.69;5014990;28;20148;-68
2023/08/15 01:13:15;;;;;;;2.65;2.08;;;;;;;20.49;100.00;100868.53;5011586;28;20084;-68
2023/08/15 01:15:49;;;;;;;2.92;1.90;;;;;;;20.47;100.00;100865.13;5030097;28;20649;-68
2023/08/15 01:18:27;;;;;;;4.88;2.22;;;;;;;20.42;100.00;100849.53;5007025;28;20440;-69
2023/08/15 01:20:56;;;;;;;5.00;2.40;;;;;;;20.37;100.00;100845.63;5033795;28;20041;-68
2023/08/15 01:23:33;;;;;;;4.10;2.00;;;;;;;20.31;100.00;100836.38;5001295;28;20126;-68
2023/08/15 01:26:00;;;;;;;5.22;1.83;;;;;;;20.24;100.00;100827.25;5010596;28;20107;-67
2023/08/15 01:28:28;;;;;;;2.65;1.70;;;;;;;20.17;100.00;100828.81;5010483;28;20122;-68
2023/08/15 01:31:10;;;;;;;3.33;1.83;;;;;;;20.10;100.00;100811.69;5013495;28;20088;-66
2023/08/15 01:33:53;;;;;;;1.85;1.60;;;;;;;20.04;100.00;100791.75;5026023;28;20046;-65
2023/08/15 01:36:36;;;;;;;4.85;2.00;;;;;;;20.01;100.00;100797.38;4998708;28;20203;-66
2023/08/15 01:39:04;;;;;;;3.20;1.92;;;;;;;20.00;100.00;100795.69;5012377;28;20064;-66
2023/08/15 01:41:33;;;;;;;2.00;1.80;;;;;;;19.98;100.00;100790.50;5033690;28;20081;-67
2023/08/15 01:44:01;;;;;;;5.60;1.95;;;;;;;19.96;100.00;100784.47;4984728;28;20460;-66
2023/08/15 01:46:28;;;;;;;2.88;2.15;;;;;;;19.96;100.00;100781.78;5017378;28;20092;-66
2023/08/15 01:48:59;;;;;;;5.03;1.85;;;;;;;19.96;100.00;100786.28;5030029;28;20061;-65
2023/08/15 01:51:26;;;;;;;3.55;2.13;;;;;;;19.96;100.00;100786.28;5007864;28;20139;-66
2023/08/15 01:53:54;;;;;;;3.55;2.08;;;;;;;19.95;100.00;100780.13;5011549;28;20134;-67
2023/08/15 01:56:21;;;;;;;4.13;2.03;;;;;;;19.97;100.00;100777.28;5018010;28;20460;-66
2023/08/15 01:58:50;;;;;;;5.43;2.33;;;;;;;19.96;100.00;100778.28;5041820;28;20095;-66
2023/08/15 02:01:18;;;;;;;4.00;1.92;;;;;;;19.97;100.00;100775.44;5031435;28;20049;-66
2023/08/15 02:03:46;;;;;;;3.50;2.28;;;;;;;19.96;100.00;100764.91;5013701;28;20049;-66
2023/08/15 02:06:14;;;;;;;2.78;2.00;;;;;;;19.96;100.00;100771.09;5014349;28;20045;-66
2023/08/15 02:08:41;;;;;;;3.55;1.90;;;;;;;19.95;100.00;100772.09;5011804;28;20147;-66
2023/08/15 02:11:09;;;;;;;8.63;2.40;;;;;;;19.93;100.00;100763.38;5014989;28;20087;-68
2023/08/15 02:13:38;;;;;;;5.70;2.35;;;;;;;19.91;100.00;100759.19;4997116;28;20354;-67
2023/08/15 02:16:05;;;;;;;6.72;2.72;;;;;;;19.89;100.00;100753.13;5026592;28;20057;-66
2023/08/15 02:18:33;;;;;;;3.60;2.55;;;;;;;19.88;100.00;100752.28;5028175;28;20061;-68
2023/08/15 02:21:00;;;;;;;6.18;2.50;;;;;;;19.88;100.00;100748.78;5035229;28;20100;-68
2023/08/15 02:23:28;;;;;;;4.72;2.67;;;;;;;19.87;100.00;100742.59;5015632;28;20072;-68
2023/08/15 02:25:55;;;;;;;3.08;2.15;;;;;;;19.85;100.00;100744.56;5014589;28;20447;-68
2023/08/15 02:28:23;;;;;;;2.67;2.20;;;;;;;19.84;100.00;100729.53;4995822;28;20141;-67
2023/08/15 02:30:53;;;;;;;5.47;2.35;;;;;;;19.84;100.00;100728.69;5017301;28;20118;-68
2023/08/15 02:33:20;;;;;;;3.70;2.22;;;;;;;19.83;100.00;100727.84;5034161;28;21045;-68
2023/08/15 02:35:52;;;;;;;3.67;2.35;;;;;;;19.82;100.00;100717.31;5016406;28;20115;-67
2023/08/15 02:38:19;;;;;;;5.75;2.58;;;;;;;19.81;100.00;100718.28;5012479;28;20067;-67
2023/08/15 02:40:48;;;;;;;3.63;2.20;;;;;;;19.79;100.00;100706.91;5028467;28;20058;-67
2023/08/15 02:43:15;;;;;;;6.47;2.60;;;;;;;19.76;100.00;100699.19;4995124;28;20512;-66
2023/08/15 02:45:42;;;;;;;5.93;2.63;;;;;;;19.72;100.00;100702.19;5008820;28;21497;-65
2023/08/15 02:48:10;;;;;;;3.83;2.65;;;;;;;19.70;100.00;100706.81;5013259;28;20131;-66
2023/08/15 02:50:37;;;;;;;8.70;2.60;;;;;;;19.67;100.00;100699.09;5028934;28;20060;-67
2023/08/15 02:53:06;;;;;;;4.43;2.42;;;;;;;19.67;100.00;100698.25;5038923;28;20069;-67
2023/08/15 02:55:35;;;;;;;4.22;2.38;;;;;;;19.66;100.00;100697.41;5029889;28;20048;-65
2023/08/15 02:58:02;;;;;;;4.53;3.08;;;;;;;19.66;100.00;100697.41;5033492;28;20061;-66
2023/08/15 03:00:30;;;;;;;3.65;2.58;;;;;;;19.65;100.00;100701.06;5013983;28;20161;-67
2023/08/15 03:02:57;;;;;;;5.85;2.97;;;;;;;19.62;100.00;100705.88;5016512;28;20427;-67
2023/08/15 03:05:25;;;;;;;4.20;2.30;;;;;;;19.60;100.00;100700.69;5018555;28;20061;-67
2023/08/15 03:07:52;;;;;;;4.68;3.05;;;;;;;19.57;100.00;100702.75;5034639;28;20049;-66
2023/08/15 03:10:20;;;;;;;6.57;2.95;;;;;;;19.55;100.00;100705.59;5030663;28;20053;-66
2023/08/15 03:12:48;;;;;;;4.82;3.42;;;;;;;19.55;100.00;100718.94;5027304;28;20098;-66
2023/08/15 03:15:15;;;;;;;4.35;2.88;;;;;;;19.54;100.00;100721.75;5038158;28;20053;-67
2023/08/15 03:17:43;;;;;;;4.22;3.10;;;;;;;19.52;100.00;100721.06;5028693;28;20114;-66
2023/08/15 03:20:11;;;;;;;7.50;3.30;;;;;;;19.48;100.00;100721.34;5018073;28;20407;-67
2023/08/15 03:22:41;;;;;;;3.92;3.15;;;;;;;19.47;100.00;100718.81;5015407;28;20053;-68
2023/08/15 03:25:09;;;;;;;4.45;2.92;;;;;;;19.48;100.00;100728.50;4997830;28;20045;-67
2023/08/15 03:27:37;;;;;;;5.43;3.42;;;;;;;19.46;100.00;100739.34;5034800;28;20069;-68
2023/08/15 03:30:05;;;;;;;6.68;3.50;;;;;;;19.45;100.00;100747.47;5015444;28;20041;-68
2023/08/15 03:32:32;;;;;;;8.90;3.70;;;;;;;19.45;100.00;100750.16;5017530;28;20464;-68
2023/08/15 03:35:00;;;;;;;4.40;4.00;;;;;;;19.44;100.00;100751.16;5026849;28;20057;-68
2023/08/15 03:37:27;;;;;;;8.13;4.03;;;;;;;19.43;100.00;100757.47;5021987;28;20384;-68
2023/08/15 03:39:57;;;;;;;6.18;3.40;;;;;;;19.43;100.00;100760.16;5016675;28;20053;-68
2023/08/15 03:42:25;;;;;;;6.80;3.88;;;;;;;19.43;100.00;100774.34;5011104;28;20057;-69
2023/08/15 03:44:54;;;;;;;8.07;4.78;;;;;;;19.42;100.00;100774.50;5036441;28;20112;-69
2023/08/15 03:47:22;;;;;;;6.15;3.65;;;;;;;19.41;100.00;100772.81;5018835;28;20069;-68
2023/08/15 03:49:49;;;;;;;6.20;3.85;;;;;;;19.40;100.00;100774.63;5032006;28;20084;-69
2023/08/15 03:52:17;;;;;;;8.25;4.90;;;;;;;19.40;100.00;100771.94;5032900;28;20054;-68
2023/08/15 03:54:44;;;;;;;7.75;5.07;;;;;;;19.42;100.00;100782.50;5014968;28;20061;-68
2023/08/15 03:57:12;;;;;;;5.68;5.00;;;;;;;19.40;100.00;100776.44;5033394;28;20157;-68
2023/08/15 03:59:40;;;;;;;7.35;4.78;;;;;;;19.41;100.00;100784.31;5031455;28;20686;-70
2023/08/15 04:02:09;;;;;;;6.82;4.90;;;;;;;19.43;100.00;100778.84;4999491;28;20400;-70
2023/08/15 04:04:37;;;;;;;6.68;4.50;;;;;;;19.44;100.00;100784.03;5019397;28;20555;-69
2023/08/15 04:07:04;;;;;;;6.65;5.63;;;;;;;19.45;100.00;100799.06;4994697;28;20080;-69
2023/08/15 04:09:31;;;;;;;6.50;4.97;;;;;;;19.45;100.00;100809.75;5014785;28;20084;-69
2023/08/15 04:11:59;;;;;;;7.28;5.28;;;;;;;19.47;100.00;100804.25;5015115;28;20127;-68
2023/08/15 04:14:27;;;;;;;6.85;6.05;;;;;;;19.48;100.00;100801.44;5027104;28;20143;-69
2023/08/15 04:16:54;;;;;;;7.70;5.82;;;;;;;19.52;100.00;100817.19;5010588;28;20113;-68
2023/08/15 04:19:22;;;;;;;8.63;6.00;;;;;;;19.53;100.00;100806.34;5029182;28;20057;-69
2023/08/15 04:21:49;;;;;;;6.80;5.85;;;;;;;19.55;100.00;100823.09;5036937;28;20478;-69
2023/08/15 04:24:19;;;;;;;9.98;6.82;;;;;;;19.58;100.00;100821.94;5010308;28;20530;-68
2023/08/15 04:26:47;;;;;;;7.85;6.13;;;;;;;19.58;100.00;100828.13;5011307;28;20061;-69
2023/08/15 04:29:14;;;;;;;6.32;5.72;;;;;;;19.62;100.00;100836.72;5015827;28;20115;-68
2023/08/15 04:31:41;;;;;;;6.75;6.05;;;;;;;19.65;100.00;100828.44;5028487;28;20574;-69
2023/08/15 04:34:09;;;;;;;9.13;7.05;;;;;;;19.67;100.00;100826.44;5005586;28;20049;-68
2023/08/15 04:36:37;;;;;;;7.53;6.30;;;;;;;19.69;100.00;100824.50;5035544;28;20050;-70
2023/08/15 04:39:06;;;;;;;9.23;6.53;;;;;;;19.72;100.00;100824.19;5014263;28;20467;-69
2023/08/15 04:41:33;;;;;;;7.40;6.47;;;;;;;19.76;100.00;100827.41;5036029;28;20065;-69
2023/08/15 04:44:26;;;;;;;7.93;5.93;;;;;;;19.80;100.00;100831.47;5030900;28;20057;-68
2023/08/15 04:47:19;;;;;;;6.47;5.68;;;;;;;19.82;100.00;100826.84;5031161;28;20519;-68
2023/08/15 04:49:47;;;;;;;7.80;5.82;;;;;;;19.86;100.00;100834.44;5008313;28;20041;-68
2023/08/15 04:52:16;;;;;;;9.70;6.53;;;;;;;19.89;100.00;100839.47;5015490;28;20053;-68
2023/08/15 04:54:43;;;;;;;8.20;6.60;;;;;;;19.94;100.00;100834.53;5035463;28;20069;-68
2023/08/15 04:57:12;;;;;;;11.48;5.80;;;;;;;19.98;100.00;100835.06;5012192;28;20115;-69
2023/08/15 04:59:41;;;;;;;8.35;6.13;;;;;;;20.01;100.00;100823.28;5013410;28;20053;-69
2023/08/15 05:02:09;;;;;;;7.75;6.05;;;;;;;20.02;100.00;100825.78;5014540;28;20554;-68
2023/08/15 05:04:36;;;;;;;6.63;5.90;;;;;;;20.05;100.00;100821.97;5009591;28;20559;-70
2023/08/15 05:07:04;;;;;;;7.15;5.85;;;;;;;20.05;100.00;100830.00;5013900;28;20054;-68
2023/08/15 05:09:31;;;;;;;10.27;5.35;;;;;;;20.07;100.00;100828.00;5034410;28;20564;-68
2023/08/15 05:11:58;;;;;;;8.40;5.22;;;;;;;20.10;100.00;100839.25;5034200;28;20048;-68
2023/08/15 05:14:26;;;;;;;10.95;5.97;;;;;;;20.13;100.00;100830.13;5020839;28;20643;-67
2023/08/15 05:16:53;;;;;;;7.32;5.75;;;;;;;20.12;100.00;100837.25;5030063;28;20096;-67
2023/08/15 05:19:21;;;;;;;7.57;6.38;;;;;;;20.15;100.00;100846.84;5031108;28;20084;-66
2023/08/15 05:21:48;;;;;;;9.70;5.40;;;;;;;20.13;100.00;100836.31;5022679;28;20111;-66
2023/08/15 05:24:15;;;;;;;7.93;6.03;;;;;;;20.18;100.00;100834.03;5025144;28;20107;-68
2023/08/15 05:26:43;;;;;;;10.50;5.70;;;;;;;20.15;100.00;100839.66;5010506;28;20045;-68
2023/08/15 05:29:10;;;;;;;7.30;5.63;;;;;;;20.18;100.00;100839.38;5029912;28;20495;-67
2023/08/15 05:31:38;;;;;;;9.20;5.80;;;;;;;20.21;100.00;100833.72;5027400;28;20123;-70
2023/08/15 05:34:05;;;;;;;8.48;4.78;;;;;;;20.20;100.00;100834.72;5031467;28;20061;-70
2023/08/15 05:36:36;;;;;;;9.05;5.47;;;;;;;20.23;100.00;100836.25;5014490;28;20049;-67
2023/08/15 05:39:04;;;;;;;7.78;5.88;;;;;;;20.23;100.00;100846.94;5033867;28;20049;-66
2023/08/15 05:41:32;;;;;;;7.50;4.65;;;;;;;20.25;100.00;100847.63;5031834;28;20073;-66
2023/08/15 05:43:59;;;;;;;9.73;5.60;;;;;;;20.31;100.00;100846.19;5011426;28;20096;-66
2023/08/15 05:46:26;;;;;;;7.43;5.75;;;;;;;20.36;100.00;100843.94;5040210;28;20061;-66
2023/08/15 05:48:53;;;;;;;6.78;5.00;;;;;;;20.38;100.00;100842.78;5016417;28;20103;-67
2023/08/15 05:51:21;;;;;;;7.18;5.70;;;;;;;20.47;100.00;100851.75;5030483;28;20156;-67
2023/08/15 05:53:48;;;;;;;7.25;5.88;;;;;;;20.58;100.00;100851.59;5029536;28;20410;-66
2023/08/15 05:56:16;;;;;;;7.85;5.13;;;;;;;20.62;100.00;100849.44;5016911;28;20092;-73
2023/08/15 05:58:43;;;;;;;9.73;4.82;;;;;;;20.69;100.00;100854.03;5017854;28;20519;-72
2023/08/15 06:01:10;;;;;;;9.23;4.50;;;;;;;20.72;100.00;100855.59;5033233;28;20053;-72
2023/08/15 06:03:38;;;;;;;9.52;4.43;;;;;;;20.84;100.00;100859.72;5032117;28;20098;-68
2023/08/15 06:06:20;;;;;;;9.55;4.20;;;;;;;20.90;100.00;100867.16;5027697;28;20367;-72
2023/08/15 06:08:48;;;;;;;12.52;4.38;;;;;;;20.86;100.00;100868.44;5019151;28;20036;-72
2023/08/15 06:11:15;;;;;;;5.07;4.53;;;;;;;20.88;100.00;100861.09;5026042;28;20054;-72
2023/08/15 06:13:42;;;;;;;5.50;3.97;;;;;;;20.95;100.00;100861.34;5032276;28;20060;-73
2023/08/15 06:16:10;;;;;;;7.28;4.68;;;;;;;21.02;100.00;100854.38;5031021;28;20057;-72
2023/08/15 06:18:40;;;;;;;6.53;4.30;;;;;;;21.08;100.00;100855.63;5012615;28;20140;-73
2023/08/15 06:21:07;;;;;;;5.75;4.78;;;;;;;21.11;100.00;100850.78;5035062;28;20037;-73
2023/08/15 06:23:35;;;;;;;7.65;4.45;;;;;;;21.18;100.00;100859.91;5016083;28;20099;-73
2023/08/15 06:26:02;;;;;;;7.53;4.85;;;;;;;21.25;100.00;100854.75;5032996;28;20468;-73
2023/08/15 06:28:30;;;;;;;7.43;4.43;;;;;;;21.32;100.00;100857.72;5018086;28;20081;-73
2023/08/15 06:30:57;;;;;;;8.75;4.55;;;;;;;21.34;100.00;100848.50;5032287;28;20081;-72
2023/08/15 06:33:25;;;;;;;11.00;5.22;;;;;;;21.41;100.00;100852.25;5025201;28;20060;-72
2023/08/15 06:35:52;;;;;;;5.88;3.88;;;;;;;21.48;100.00;100849.81;5006856;28;20061;-75
2023/08/15 06:38:20;;;;;;;10.52;5.20;;;;;;;21.52;100.00;100845.78;5037016;28;20081;-75
2023/08/15 06:40:47;;;;;;;8.45;4.35;;;;;;;21.58;100.00;100845.19;5030698;28;20057;-74
2023/08/15 06:43:14;;;;;;;12.18;4.80;;;;;;;21.72;100.00;100847.28;5028564;28;20096;-74
2023/08/15 06:46:30;;;;;;;9.23;4.63;;;;;;;21.91;100.00;100845.41;5019262;28;20049;-75
2023/08/15 06:49:46;;;;;;;7.53;4.60;;;;;;;21.98;100.00;100835.75;5024000;28;20845;-70
2023/08/15 06:52:14;;;;;;;4.20;3.80;;;;;;;22.03;100.00;100845.97;5032943;28;20097;-72
2023/08/15 06:54:41;;;;;;;6.22;3.60;;;;;;;22.09;100.00;100858.75;5023478;28;20057;-71
2023/08/15 06:57:09;;;;;;;4.40;3.97;;;;;;;22.20;100.00;100872.75;5014487;28;20540;-71
2023/08/15 06:59:36;;;;;;;8.25;4.68;;;;;;;22.27;100.00;100872.09;5037130;28;20140;-71
2023/08/15 07:02:05;;;;;;;5.50;3.80;;;;;;;22.33;100.00;100869.59;5018660;28;20063;-71
2023/08/15 07:04:33;;;;;;;9.75;4.43;;;;;;;22.36;100.00;100857.72;5020145;28;20061;-71
2023/08/15 07:07:02;;;;;;;8.98;3.92;;;;;;;22.47;100.00;100857.44;5036752;28;20135;-71
2023/08/15 07:09:32;;;;;;;10.15;4.05;;;;;;;22.61;100.00;100861.34;5042894;28;20603;-71
2023/08/15 07:12:00;;;;;;;13.88;4.47;;;;;;;22.68;100.00;100859.69;5008268;28;20374;-71
2023/08/15 07:14:28;;;;;;;6.85;3.97;;;;;;;22.75;100.00;100863.41;5021928;28;20049;-72
2023/08/15 07:16:59;;;;;;;5.97;4.07;;;;;;;22.79;100.00;100855.88;5006382;28;20049;-72
2023/08/15 07:19:27;;;;;;;5.15;4.07;;;;;;;22.85;100.00;100860.56;5020174;28;20049;-71
2023/08/15 07:21:54;;;;;;;7.25;3.70;;;;;;;22.92;100.00;100859.78;5019406;28;20099;-72
2023/08/15 07:24:22;;;;;;;8.07;4.25;;;;;;;22.95;100.00;100854.06;5021140;28;20373;-71
2023/08/15 07:26:50;;;;;;;6.43;3.95;;;;;;;23.05;100.00;100853.06;5001730;28;20100;-72
2023/08/15 07:29:17;;;;;;;6.13;4.10;;;;;;;23.10;100.00;100851.59;5034265;28;20053;-71
2023/08/15 07:31:45;;;;;;;5.55;3.60;;;;;;;23.20;100.00;100854.94;4983972;28;20087;-71
2023/08/15 07:34:12;;;;;;;6.03;4.22;;;;;;;23.35;100.00;100843.53;5031927;28;20147;-71
2023/08/15 07:36:43;;;;;;;9.13;3.72;;;;;;;23.52;100.00;100864.03;5016006;28;21444;-71
2023/08/15 07:39:10;;;;;;;5.63;3.55;;;;;;;23.63;100.00;100865.50;5016776;28;20045;-72
2023/08/15 07:41:37;;;;;;;11.55;4.13;;;;;;;23.72;100.00;100865.34;5016221;28;20069;-71
2023/08/15 07:44:05;;;;;;;7.30;3.85;;;;;;;23.86;100.00;100866.50;5029217;28;20132;-71
2023/08/15 07:46:32;;;;;;;4.30;3.30;;;;;;;24.00;100.00;100851.53;5001365;28;20045;-72
2023/08/15 07:49:00;;;;;;;8.02;4.00;;;;;;;24.14;100.00;100858.91;5031858;28;20072;-72
2023/08/15 07:51:27;;;;;;;7.78;3.80;;;;;;;24.26;100.00;100860.19;5014120;28;20145;-71
2023/08/15 07:53:55;;;;;;;9.70;4.38;;;;;;;24.34;100.00;100861.19;5028294;28;20065;-71
2023/08/15 07:56:23;;;;;;;12.45;4.03;;;;;;;24.39;100.00;100851.59;5028390;28;20061;-72
2023/08/15 07:58:50;;;;;;;7.75;3.15;;;;;;;24.46;100.00;100854.44;5026621;28;20563;-72
2023/08/15 08:01:18;;;;;;;8.15;3.63;;;;;;;24.57;100.00;100862.09;5017673;28;20069;-73
2023/08/15 08:03:45;;;;;;;6.20;3.58;;;;;;;24.70;99.73;100866.94;5001408;28;20220;-72
2023/08/15 08:06:12;;;;;;;5.97;3.00;;;;;;;24.65;99.49;100866.63;5012228;28;20072;-72
2023/08/15 08:09:00;;;;;;;5.75;3.60;;;;;;;24.79;98.37;100856.94;5022156;28;20061;-73
2023/08/15 08:11:27;;;;;;;4.70;3.88;;;;;;;24.81;97.99;100865.69;5018625;28;20111;-73
2023/08/15 08:13:55;;;;;;;5.97;3.80;;;;;;;24.93;97.15;100872.34;5003899;28;20089;-71
2023/08/15 08:16:22;;;;;;;6.47;4.47;;;;;;;24.94;98.33;100869.47;5036233;28;20053;-71
2023/08/15 08:18:50;;;;;;;6.95;3.90;;;;;;;25.12;98.51;100868.38;5015320;28;20060;-71
2023/08/15 08:21:17;;;;;;;7.85;4.30;;;;;;;25.14;95.34;100867.19;4990759;28;20053;-73
2023/08/15 08:23:45;;;;;;;6.60;4.25;;;;;;;25.22;96.18;100880.59;5015950;28;20049;-73
2023/08/15 08:26:12;;;;;;;4.88;4.28;;;;;;;25.34;96.99;100880.16;5018098;28;20506;-72
2023/08/15 08:28:40;;;;;;;8.80;4.18;;;;;;;25.40;94.24;100880.28;5031179;28;20622;-72
2023/08/15 08:31:07;;;;;;;9.23;4.40;;;;;;;25.45;93.15;100877.06;5021875;28;20472;-73
2023/08/15 08:33:34;;;;;;;11.48;4.63;;;;;;;25.60;91.91;100883.31;5032180;28;20422;-73
2023/08/15 08:36:02;;;;;;;5.50;4.30;;;;;;;25.52;91.50;100883.38;5030492;28;20054;-74
2023/08/15 08:38:31;;;;;;;6.97;4.40;;;;;;;25.64;92.12;100875.72;5010355;28;20042;-73
2023/08/15 08:40:58;;;;;;;7.65;4.40;;;;;;;25.76;90.81;100879.69;5028569;28;20107;-74
2023/08/15 08:43:28;;;;;;;4.38;3.97;;;;;;;25.93;90.68;100881.16;5027175;28;20103;-74
2023/08/15 08:45:58;;;;;;;5.78;4.30;;;;;;;26.08;90.01;100892.00;5028381;28;20056;-74
2023/08/15 08:48:25;;;;;;;9.48;4.78;;;;;;;26.19;88.77;100901.47;5012012;28;20100;-73
2023/08/15 08:50:53;;;;;;;7.80;4.22;;;;;;;26.20;87.79;100893.19;5013446;28;20057;-72
2023/08/15 08:53:20;;;;;;;8.73;4.85;;;;;;;26.28;87.29;100897.66;5013405;28;20111;-73
2023/08/15 08:55:48;;;;;;;15.52;5.72;;;;;;;26.38;86.13;100900.06;5033247;28;20081;-73
2023/08/15 08:58:15;;;;;;;7.05;4.30;;;;;;;26.43;84.58;100905.75;4996392;28;20081;-73
2023/08/15 09:00:44;;;;;;;6.65;4.63;;;;;;;26.39;84.99;100908.00;5017249;28;20508;-72
2023/08/15 09:03:11;;;;;;;4.72;4.30;;;;;;;26.57;84.65;100904.94;5035026;28;20058;-73
2023/08/15 09:05:40;;;;;;;7.97;4.65;;;;;;;26.81;83.88;100913.75;5018651;28;20054;-72
2023/08/15 09:08:09;;;;;;;8.15;5.43;;;;;;;26.95;80.88;100911.00;5012573;28;20029;-73
2023/08/15 09:10:36;;;;;;;6.72;4.53;;;;;;;26.97;81.11;100910.81;5015631;28;20049;-73
2023/08/15 09:13:04;;;;;;;9.80;5.53;;;;;;;27.10;80.45;100921.78;5010054;28;20053;-73
2023/08/15 09:15:31;;;;;;;5.90;4.85;;;;;;;27.19;80.49;100917.94;5034128;28;20144;-73
2023/08/15 09:18:07;;;;;;;7.13;4.97;;;;;;;27.47;80.14;100912.63;5032583;28;20434;-73
2023/08/15 09:20:44;;;;;;;5.18;4.70;;;;;;;27.79;77.82;100909.59;4997634;28;20084;-74
2023/08/15 09:23:12;;;;;;;5.25;4.68;;;;;;;28.09;76.32;100916.44;5013650;28;20045;-74
2023/08/15 09:25:39;;;;;;;9.85;5.25;;;;;;;28.19;74.94;100903.41;4983518;28;20392;-74
2023/08/15 09:28:07;;;;;;;6.72;4.90;;;;;;;28.57;73.68;100918.44;4975119;28;20050;-73
2023/08/15 09:30:35;;;;;;;9.55;4.78;;;;;;;28.05;73.85;100919.75;4991172;28;20111;-72
2023/08/15 09:33:04;;;;;;;7.57;4.93;;;;;;;28.08;73.93;100920.19;5008856;28;20600;-73
2023/08/15 09:35:32;;;;;;;7.63;5.00;;;;;;;27.97;75.02;100913.47;4987370;28;20054;-72
2023/08/15 09:40:58;;;;;;;6.45;4.68;;;;;;;28.43;74.25;100896.69;5022488;28;20571;-72
2023/08/15 09:43:25;;;;;;;7.93;4.88;;;;;;;28.74;72.63;100896.19;4991331;28;20050;-72
2023/08/15 09:45:53;;;;;;;7.90;4.50;;;;;;;29.04;70.67;100897.75;5004414;28;20107;-70
2023/08/15 09:48:22;;;;;;;9.82;5.38;;;;;;;28.99;70.74;100901.09;5007403;28;20099;-73
2023/08/15 09:50:49;;;;;;;6.30;5.70;;;;;;;29.12;69.81;100914.69;5010126;28;20056;-72
2023/08/15 09:53:22;;;;;;;11.73;5.25;;;;;;;28.89;70.28;100912.28;4986382;28;20539;-71
2023/08/15 09:55:50;;;;;;;11.45;5.68;;;;;;;28.83;70.48;100913.13;5022346;28;20073;-72
2023/08/15 09:58:19;;;;;;;11.02;5.68;;;;;;;28.72;70.29;100911.81;5025704;28;20073;-72
2023/08/15 10:00:50;;;;;;;8.73;5.00;;;;;;;28.97;69.65;100901.31;4976348;28;20432;-71
2023/08/15 10:03:29;;;;;;;5.95;4.60;;;;;;;29.05;69.71;100894.03;5028912;28;20048;-71
2023/08/15 10:05:57;;;;;;;8.15;5.32;;;;;;;29.02;68.99;100895.28;5010814;28;20053;-71
2023/08/15 10:08:25;;;;;;;8.38;5.75;;;;;;;28.68;71.52;100898.88;5006468;28;21067;-70
2023/08/15 10:10:55;;;;;;;7.53;4.90;;;;;;;28.66;71.27;100890.13;4989085;28;20910;-70
2023/08/15 10:13:26;;;;;;;9.07;5.57;;;;;;;28.74;70.82;100888.06;4990957;28;20172;-71
2023/08/15 10:16:00;;;;;;;6.57;5.45;;;;;;;28.75;70.00;100883.50;5001810;28;20073;-71
2023/08/15 10:18:32;;;;;;;7.10;4.97;;;;;;;28.80;70.05;100888.28;4991405;28;20056;-71
2023/08/15 10:21:00;;;;;;;6.63;5.40;;;;;;;28.81;70.54;100890.78;5018887;28;20104;-71
2023/08/15 10:23:28;;;;;;;7.57;5.75;;;;;;;28.83;70.58;100885.19;5001449;28;20503;-71
2023/08/15 10:26:00;;;;;;;8.80;5.38;;;;;;;28.74;70.40;100877.25;4993828;28;20037;-70
2023/08/15 10:28:34;;;;;;;6.53;5.93;;;;;;;28.42;70.97;100877.94;4987095;28;21306;-71
2023/08/15 10:31:01;;;;;;;8.93;5.82;;;;;;;28.21;71.65;100855.31;5001312;28;20061;-70
2023/08/15 10:33:29;;;;;;;5.28;4.75;;;;;;;28.22;71.81;100840.72;5007267;28;20049;-70
2023/08/15 10:35:57;;;;;;;5.57;4.45;;;;;;;28.31;71.59;100849.53;5026233;28;20061;-71
2023/08/15 10:38:29;;;;;;;8.38;5.13;;;;;;;28.33;71.65;100852.06;4991575;28;20069;-72
2023/08/15 10:41:05;;;;;;;5.70;4.95;;;;;;;28.40;71.50;100847.50;5011133;28;20191;-71
2023/08/15 10:43:35;;;;;;;7.78;5.25;;;;;;;28.42;71.15;100848.16;4994161;28;20116;-70
2023/08/15 10:49:07;;;;;;;9.45;5.55;;;;;;;28.38;71.83;100849.59;5012052;28;20613;-70
2023/08/15 10:51:40;;;;;;;5.22;4.72;;;;;;;28.41;70.97;100841.06;5009942;28;20555;-70
2023/08/15 10:54:11;;;;;;;6.53;5.25;;;;;;;28.47;71.24;100824.00;5009905;28;20056;-70
2023/08/15 10:56:40;;;;;;;7.25;4.75;;;;;;;28.49;71.43;100824.63;4999778;28;20091;-70
2023/08/15 10:59:11;;;;;;;7.95;5.30;;;;;;;28.56;71.04;100828.22;5024125;28;20135;-70
2023/08/15 11:01:45;;;;;;;5.78;5.28;;;;;;;28.85;70.59;100823.47;5012052;28;20072;-70
2023/08/15 11:04:16;;;;;;;7.22;5.72;;;;;;;29.31;69.90;100833.56;5010927;28;20511;-69
2023/08/15 11:06:49;;;;;;;8.13;5.70;;;;;;;29.61;68.07;100848.41;5009172;28;20057;-72
2023/08/15 11:09:17;;;;;;;9.32;5.80;;;;;;;29.80;66.24;100851.31;5012132;28;20569;-71
2023/08/15 11:11:45;;;;;;;6.38;5.40;;;;;;;30.11;66.13;100851.44;5013199;28;20182;-69
2023/08/15 11:14:16;;;;;;;13.07;5.47;;;;;;;30.38;64.96;100857.66;5009895;28;20570;-71
2023/08/15 11:16:47;;;;;;;11.77;6.13;;;;;;;30.50;63.76;100855.09;4995093;28;20107;-70
2023/08/15 11:19:19;;;;;;;9.68;6.03;;;;;;;30.53;63.73;100862.81;5009862;28;21232;-71
2023/08/15 11:21:47;;;;;;;7.18;5.60;;;;;;;30.71;63.71;100864.81;5010713;28;20719;-70
2023/08/15 11:24:15;;;;;;;9.13;5.45;;;;;;;30.76;61.89;100860.44;5010534;28;20045;-70
2023/08/15 11:26:42;;;;;;;7.25;5.90;;;;;;;30.62;62.73;100855.25;5030095;28;20045;-69
2023/08/15 11:29:12;;;;;;;6.38;4.95;;;;;;;30.89;62.70;100859.53;5009387;28;20313;-70
2023/08/15 11:31:41;;;;;;;6.65;5.93;;;;;;;30.92;62.42;100860.97;5009046;28;20228;-70
2023/08/15 11:34:11;;;;;;;9.65;5.68;;;;;;;31.10;61.50;100871.09;5009552;28;20072;-70